sensor_id;sensor_type;location;lat;lon;timestamp;temperature;humidity
7498;DHT22;3790;48.806;9.140;2023-03-19T00:01:03;10.00;99.90
7498;DHT22;3790;48.806;9.140;2023-03-19T00:06:04;10.00;99.90
7498;DHT22;3790;48.806;9.140;2023-03-19T00:11:06;10.20;99.90
7498;DHT22;3790;48.806;9.140;2023-03-19T00:16:07;10.30;99.90
7498;DHT22;3790;48.806;9.140;2023-03-19T00:21:07;10.40;99.90
7498;DHT22;3790;48.806;9.140;2023-03-19T00:26:08;10.30;99.90
7498;DHT22;3790;48.806;9.140;2023-03-19T00:31:13;10.30;99.90
7498;DHT22;3790;48.806;9.140;2023-03-19T00:36:14;10.40;99.90
7498;DHT22;3790;48.806;9.140;2023-03-19T00:41:18;10.40;99.90
7498;DHT22;3790;48.806;9.140;2023-03-19T00:46:20;10.30;99.90
7498;DHT22;3790;48.806;9.140;2023-03-19T00:51:21;10.20;99.90
7498;DHT22;3790;48.806;9.140;2023-03-19T00:56:22;10.30;99.90
7498;DHT22;3790;48.806;9.140;2023-03-19T01:01:23;10.40;99.90
7498;DHT22;3790;48.806;9.140;2023-03-19T01:06:24;10.50;99.90
7498;DHT22;3790;48.806;9.140;2023-03-19T01:11:27;10.60;99.90
7498;DHT22;3790;48.806;9.140;2023-03-19T01:16:27;10.60;99.90
7498;DHT22;3790;48.806;9.140;2023-03-19T01:21:28;10.70;99.90
7498;DHT22;3790;48.806;9.140;2023-03-19T01:26:33;10.70;99.90
7498;DHT22;3790;48.806;9.140;2023-03-19T01:31:34;10.80;99.90
7498;DHT22;3790;48.806;9.140;2023-03-19T01:36:34;10.70;99.90
7498;DHT22;3790;48.806;9.140;2023-03-19T01:41:35;10.70;99.90
7498;DHT22;3790;48.806;9.140;2023-03-19T01:46:37;10.80;99.90
7498;DHT22;3790;48.806;9.140;2023-03-19T01:51:40;11.00;99.90
7498;DHT22;3790;48.806;9.140;2023-03-19T01:56:43;11.30;99.90
7498;DHT22;3790;48.806;9.140;2023-03-19T02:07:10;11.20;99.90
7498;DHT22;3790;48.806;9.140;2023-03-19T02:12:12;11.30;99.90
7498;DHT22;3790;48.806;9.140;2023-03-19T02:17:13;11.60;99.90
7498;DHT22;3790;48.806;9.140;2023-03-19T02:22:16;11.70;99.90
7498;DHT22;3790;48.806;9.140;2023-03-19T02:27:18;10.90;99.90
7498;DHT22;3790;48.806;9.140;2023-03-19T02:32:19;10.10;99.90
7498;DHT22;3790;48.806;9.140;2023-03-19T02:37:23;9.80;99.90
7498;DHT22;3790;48.806;9.140;2023-03-19T02:42:27;9.80;99.90
7498;DHT22;3790;48.806;9.140;2023-03-19T02:47:28;9.80;99.90
7498;DHT22;3790;48.806;9.140;2023-03-19T02:52:29;9.80;99.90
7498;DHT22;3790;48.806;9.140;2023-03-19T02:57:29;9.50;99.90
7498;DHT22;3790;48.806;9.140;2023-03-19T03:02:30;9.70;99.90
7498;DHT22;3790;48.806;9.140;2023-03-19T03:07:31;9.70;99.90
7498;DHT22;3790;48.806;9.140;2023-03-19T03:12:32;9.70;99.90
7498;DHT22;3790;48.806;9.140;2023-03-19T03:17:35;9.70;99.90
7498;DHT22;3790;48.806;9.140;2023-03-19T03:22:36;9.50;99.90
7498;DHT22;3790;48.806;9.140;2023-03-19T03:27:37;9.50;99.90
7498;DHT22;3790;48.806;9.140;2023-03-19T03:32:38;9.60;99.90
7498;DHT22;3790;48.806;9.140;2023-03-19T03:37:39;9.60;99.90
7498;DHT22;3790;48.806;9.140;2023-03-19T03:42:39;9.60;99.90
7498;DHT22;3790;48.806;9.140;2023-03-19T03:47:40;9.60;99.90
7498;DHT22;3790;48.806;9.140;2023-03-19T03:52:41;9.60;99.90
7498;DHT22;3790;48.806;9.140;2023-03-19T03:57:42;9.50;99.90
7498;DHT22;3790;48.806;9.140;2023-03-19T04:02:42;9.60;99.90
7498;DHT22;3790;48.806;9.140;2023-03-19T04:07:43;9.50;99.90
7498;DHT22;3790;48.806;9.140;2023-03-19T04:12:44;9.50;99.90
7498;DHT22;3790;48.806;9.140;2023-03-19T04:17:45;9.50;99.90
7498;DHT22;3790;48.806;9.140;2023-03-19T04:22:45;9.50;99.90
7498;DHT22;3790;48.806;9.140;2023-03-19T04:27:46;9.60;99.90
7498;DHT22;3790;48.806;9.140;2023-03-19T04:32:46;9.60;99.90
7498;DHT22;3790;48.806;9.140;2023-03-19T04:37:47;9.60;99.90
7498;DHT22;3790;48.806;9.140;2023-03-19T04:42:47;9.80;99.90
7498;DHT22;3790;48.806;9.140;2023-03-19T04:47:48;9.90;99.90
7498;DHT22;3790;48.806;9.140;2023-03-19T04:52:49;9.90;99.90
7498;DHT22;3790;48.806;9.140;2023-03-19T04:57:49;10.00;99.90
7498;DHT22;3790;48.806;9.140;2023-03-19T05:02:50;10.00;99.90
7498;DHT22;3790;48.806;9.140;2023-03-19T05:07:51;10.00;99.90
7498;DHT22;3790;48.806;9.140;2023-03-19T05:12:51;9.90;99.90
7498;DHT22;3790;48.806;9.140;2023-03-19T05:17:52;9.80;99.90
7498;DHT22;3790;48.806;9.140;2023-03-19T05:22:53;9.60;99.90
7498;DHT22;3790;48.806;9.140;2023-03-19T05:27:53;9.50;99.90
7498;DHT22;3790;48.806;9.140;2023-03-19T05:32:56;9.30;99.90
7498;DHT22;3790;48.806;9.140;2023-03-19T05:37:57;9.30;99.90
7498;DHT22;3790;48.806;9.140;2023-03-19T05:42:58;9.40;99.90
7498;DHT22;3790;48.806;9.140;2023-03-19T05:47:58;9.30;99.90
7498;DHT22;3790;48.806;9.140;2023-03-19T05:52:59;9.30;99.90
7498;DHT22;3790;48.806;9.140;2023-03-19T05:58:00;9.30;99.90
7498;DHT22;3790;48.806;9.140;2023-03-19T06:03:01;9.30;99.90
7498;DHT22;3790;48.806;9.140;2023-03-19T06:08:01;9.20;99.90
7498;DHT22;3790;48.806;9.140;2023-03-19T06:13:02;9.20;99.90
7498;DHT22;3790;48.806;9.140;2023-03-19T06:18:02;9.30;99.90
7498;DHT22;3790;48.806;9.140;2023-03-19T06:23:03;9.40;99.90
7498;DHT22;3790;48.806;9.140;2023-03-19T06:28:04;9.40;99.90
7498;DHT22;3790;48.806;9.140;2023-03-19T06:33:05;9.70;99.90
7498;DHT22;3790;48.806;9.140;2023-03-19T06:38:06;10.20;99.90
7498;DHT22;3790;48.806;9.140;2023-03-19T06:43:07;10.60;99.90
7498;DHT22;3790;48.806;9.140;2023-03-19T06:48:08;10.80;99.90
7498;DHT22;3790;48.806;9.140;2023-03-19T06:53:08;10.90;99.90
7498;DHT22;3790;48.806;9.140;2023-03-19T06:58:09;11.20;99.90
7498;DHT22;3790;48.806;9.140;2023-03-19T07:03:10;11.40;99.90
7498;DHT22;3790;48.806;9.140;2023-03-19T07:08:10;11.50;99.90
7498;DHT22;3790;48.806;9.140;2023-03-19T07:13:12;11.50;99.90
7498;DHT22;3790;48.806;9.140;2023-03-19T07:18:12;11.60;99.90
7498;DHT22;3790;48.806;9.140;2023-03-19T07:23:13;11.70;99.90
7498;DHT22;3790;48.806;9.140;2023-03-19T07:28:14;11.80;99.90
7498;DHT22;3790;48.806;9.140;2023-03-19T07:33:15;11.90;99.90
7498;DHT22;3790;48.806;9.140;2023-03-19T07:38:16;12.20;99.90
7498;DHT22;3790;48.806;9.140;2023-03-19T07:43:16;12.40;99.90
7498;DHT22;3790;48.806;9.140;2023-03-19T07:48:17;12.60;99.90
7498;DHT22;3790;48.806;9.140;2023-03-19T07:53:18;12.80;99.90
7498;DHT22;3790;48.806;9.140;2023-03-19T07:58:19;12.80;99.90
7498;DHT22;3790;48.806;9.140;2023-03-19T08:03:20;13.00;99.90
7498;DHT22;3790;48.806;9.140;2023-03-19T08:08:20;13.20;99.90
7498;DHT22;3790;48.806;9.140;2023-03-19T08:13:21;13.50;99.90
7498;DHT22;3790;48.806;9.140;2023-03-19T08:18:21;14.00;99.90
7498;DHT22;3790;48.806;9.140;2023-03-19T08:23:22;14.30;99.90
7498;DHT22;3790;48.806;9.140;2023-03-19T08:28:23;14.30;99.90
7498;DHT22;3790;48.806;9.140;2023-03-19T08:33:23;14.30;99.90
7498;DHT22;3790;48.806;9.140;2023-03-19T08:38:24;14.50;99.90
7498;DHT22;3790;48.806;9.140;2023-03-19T08:43:25;14.90;99.90
7498;DHT22;3790;48.806;9.140;2023-03-19T08:48:26;15.10;99.90
7498;DHT22;3790;48.806;9.140;2023-03-19T08:53:27;15.10;99.90
7498;DHT22;3790;48.806;9.140;2023-03-19T08:58:28;15.00;99.90
7498;DHT22;3790;48.806;9.140;2023-03-19T09:03:29;14.90;99.90
7498;DHT22;3790;48.806;9.140;2023-03-19T09:08:30;14.90;99.90
7498;DHT22;3790;48.806;9.140;2023-03-19T09:13:31;15.30;99.90
7498;DHT22;3790;48.806;9.140;2023-03-19T09:18:32;15.90;99.90
7498;DHT22;3790;48.806;9.140;2023-03-19T09:23:33;16.30;99.90
7498;DHT22;3790;48.806;9.140;2023-03-19T09:28:34;16.30;99.90
7498;DHT22;3790;48.806;9.140;2023-03-19T09:33:35;16.40;99.90
7498;DHT22;3790;48.806;9.140;2023-03-19T09:38:35;16.50;99.90
7498;DHT22;3790;48.806;9.140;2023-03-19T09:44:47;16.40;99.90
7498;DHT22;3790;48.806;9.140;2023-03-19T09:49:26;16.20;99.90
7498;DHT22;3790;48.806;9.140;2023-03-19T09:54:34;16.20;99.90
7498;DHT22;3790;48.806;9.140;2023-03-19T09:59:39;16.80;99.90
7498;DHT22;3790;48.806;9.140;2023-03-19T10:15:29;17.70;99.90
7498;DHT22;3790;48.806;9.140;2023-03-19T10:20:51;18.00;99.90
7498;DHT22;3790;48.806;9.140;2023-03-19T10:25:56;17.80;99.90
7498;DHT22;3790;48.806;9.140;2023-03-19T10:31:24;17.40;99.90
7498;DHT22;3790;48.806;9.140;2023-03-19T10:36:29;17.20;99.90
7498;DHT22;3790;48.806;9.140;2023-03-19T10:46:39;17.60;99.90
7498;DHT22;3790;48.806;9.140;2023-03-19T10:51:43;17.30;99.90
7498;DHT22;3790;48.806;9.140;2023-03-19T10:56:46;17.10;99.90
7498;DHT22;3790;48.806;9.140;2023-03-19T11:01:47;17.40;99.90
7498;DHT22;3790;48.806;9.140;2023-03-19T11:06:52;17.40;99.90
7498;DHT22;3790;48.806;9.140;2023-03-19T11:11:57;17.80;99.90
7498;DHT22;3790;48.806;9.140;2023-03-19T11:17:01;18.20;99.90
7498;DHT22;3790;48.806;9.140;2023-03-19T11:22:22;18.60;99.90
7498;DHT22;3790;48.806;9.140;2023-03-19T11:27:31;19.00;99.90
7498;DHT22;3790;48.806;9.140;2023-03-19T11:38:00;21.30;98.80
7498;DHT22;3790;48.806;9.140;2023-03-19T11:43:22;21.10;98.30
7498;DHT22;3790;48.806;9.140;2023-03-19T11:48:39;24.70;96.30
7498;DHT22;3790;48.806;9.140;2023-03-19T12:15:23;21.50;91.10
7498;DHT22;3790;48.806;9.140;2023-03-19T12:20:54;21.60;91.00
7498;DHT22;3790;48.806;9.140;2023-03-19T12:26:03;21.80;91.80
7498;DHT22;3790;48.806;9.140;2023-03-19T12:31:23;22.40;90.70
7498;DHT22;3790;48.806;9.140;2023-03-19T12:36:31;23.00;90.20
7498;DHT22;3790;48.806;9.140;2023-03-19T12:41:37;25.20;85.10
7498;DHT22;3790;48.806;9.140;2023-03-19T12:46:40;22.80;86.30
7498;DHT22;3790;48.806;9.140;2023-03-19T12:51:54;19.80;92.00
7498;DHT22;3790;48.806;9.140;2023-03-19T13:02:23;16.90;99.90
7498;DHT22;3790;48.806;9.140;2023-03-19T13:12:53;14.20;99.90
7498;DHT22;3790;48.806;9.140;2023-03-19T13:18:10;12.50;99.90
7498;DHT22;3790;48.806;9.140;2023-03-19T13:23:24;11.60;99.90
7498;DHT22;3790;48.806;9.140;2023-03-19T13:28:29;11.80;99.90
7498;DHT22;3790;48.806;9.140;2023-03-19T13:33:30;12.80;99.90
7498;DHT22;3790;48.806;9.140;2023-03-19T13:38:38;13.70;99.90
7498;DHT22;3790;48.806;9.140;2023-03-19T13:43:41;13.90;99.90
7498;DHT22;3790;48.806;9.140;2023-03-19T13:59:22;13.00;99.90
7498;DHT22;3790;48.806;9.140;2023-03-19T14:14:41;13.30;99.90
7498;DHT22;3790;48.806;9.140;2023-03-19T14:19:42;14.90;99.90
7498;DHT22;3790;48.806;9.140;2023-03-19T14:25:18;16.20;99.90
7498;DHT22;3790;48.806;9.140;2023-03-19T14:35:35;20.60;99.90
7498;DHT22;3790;48.806;9.140;2023-03-19T14:40:43;18.60;99.90
7498;DHT22;3790;48.806;9.140;2023-03-19T14:45:59;17.70;99.90
7498;DHT22;3790;48.806;9.140;2023-03-19T14:56:32;15.40;99.90
7498;DHT22;3790;48.806;9.140;2023-03-19T15:01:38;14.60;99.90
7498;DHT22;3790;48.806;9.140;2023-03-19T15:06:46;14.30;99.90
7498;DHT22;3790;48.806;9.140;2023-03-19T15:17:29;14.60;99.90
7498;DHT22;3790;48.806;9.140;2023-03-19T15:22:32;14.90;99.90
7498;DHT22;3790;48.806;9.140;2023-03-19T15:27:33;15.20;99.90
7498;DHT22;3790;48.806;9.140;2023-03-19T15:32:38;15.10;99.90
7498;DHT22;3790;48.806;9.140;2023-03-19T15:37:41;14.70;99.90
7498;DHT22;3790;48.806;9.140;2023-03-19T15:42:44;14.30;99.90
7498;DHT22;3790;48.806;9.140;2023-03-19T15:48:06;14.10;99.90
7498;DHT22;3790;48.806;9.140;2023-03-19T15:53:10;13.90;99.90
7498;DHT22;3790;48.806;9.140;2023-03-19T15:58:15;12.70;99.90
7498;DHT22;3790;48.806;9.140;2023-03-19T16:03:19;11.90;99.90
7498;DHT22;3790;48.806;9.140;2023-03-19T16:08:24;11.60;99.90
7498;DHT22;3790;48.806;9.140;2023-03-19T16:13:36;11.20;99.90
7498;DHT22;3790;48.806;9.140;2023-03-19T16:18:57;10.90;99.90
7498;DHT22;3790;48.806;9.140;2023-03-19T16:24:01;10.60;99.90
7498;DHT22;3790;48.806;9.140;2023-03-19T16:29:20;10.60;99.90
7498;DHT22;3790;48.806;9.140;2023-03-19T16:34:33;10.70;99.90
7498;DHT22;3790;48.806;9.140;2023-03-19T16:39:52;10.80;99.90
7498;DHT22;3790;48.806;9.140;2023-03-19T16:44:53;10.90;99.90
7498;DHT22;3790;48.806;9.140;2023-03-19T16:49:54;11.00;99.90
7498;DHT22;3790;48.806;9.140;2023-03-19T16:54:55;10.90;99.90
7498;DHT22;3790;48.806;9.140;2023-03-19T16:59:57;10.70;99.90
7498;DHT22;3790;48.806;9.140;2023-03-19T17:04:57;10.60;99.90
7498;DHT22;3790;48.806;9.140;2023-03-19T17:09:58;10.60;99.90
7498;DHT22;3790;48.806;9.140;2023-03-19T17:14:58;10.70;99.90
7498;DHT22;3790;48.806;9.140;2023-03-19T17:19:59;10.70;99.90
7498;DHT22;3790;48.806;9.140;2023-03-19T17:25:00;10.70;99.90
7498;DHT22;3790;48.806;9.140;2023-03-19T17:30:00;10.70;99.90
7498;DHT22;3790;48.806;9.140;2023-03-19T17:35:01;10.50;99.90
7498;DHT22;3790;48.806;9.140;2023-03-19T17:40:24;10.30;99.90
7498;DHT22;3790;48.806;9.140;2023-03-19T17:45:29;10.30;99.90
7498;DHT22;3790;48.806;9.140;2023-03-19T17:50:30;10.30;99.90
7498;DHT22;3790;48.806;9.140;2023-03-19T17:55:32;10.30;99.90
7498;DHT22;3790;48.806;9.140;2023-03-19T18:00:32;10.20;99.90
7498;DHT22;3790;48.806;9.140;2023-03-19T18:05:33;10.10;99.90
7498;DHT22;3790;48.806;9.140;2023-03-19T18:10:33;10.10;99.90
7498;DHT22;3790;48.806;9.140;2023-03-19T18:15:35;10.20;99.90
7498;DHT22;3790;48.806;9.140;2023-03-19T18:20:37;10.30;99.90
7498;DHT22;3790;48.806;9.140;2023-03-19T18:25:38;10.30;99.90
7498;DHT22;3790;48.806;9.140;2023-03-19T18:30:40;10.30;99.90
7498;DHT22;3790;48.806;9.140;2023-03-19T18:35:42;10.20;99.90
7498;DHT22;3790;48.806;9.140;2023-03-19T18:40:45;10.20;99.90
7498;DHT22;3790;48.806;9.140;2023-03-19T18:45:49;10.20;99.90
7498;DHT22;3790;48.806;9.140;2023-03-19T18:50:51;10.20;99.90
7498;DHT22;3790;48.806;9.140;2023-03-19T18:55:52;10.20;99.90
7498;DHT22;3790;48.806;9.140;2023-03-19T19:00:52;10.00;99.90
7498;DHT22;3790;48.806;9.140;2023-03-19T19:05:53;9.90;99.90
7498;DHT22;3790;48.806;9.140;2023-03-19T19:11:00;9.70;99.90
7498;DHT22;3790;48.806;9.140;2023-03-19T19:16:02;9.70;99.90
7498;DHT22;3790;48.806;9.140;2023-03-19T19:21:04;9.60;99.90
7498;DHT22;3790;48.806;9.140;2023-03-19T19:26:05;9.60;99.90
7498;DHT22;3790;48.806;9.140;2023-03-19T19:31:10;9.60;99.90
7498;DHT22;3790;48.806;9.140;2023-03-19T19:36:14;9.50;99.90
7498;DHT22;3790;48.806;9.140;2023-03-19T19:41:15;9.30;99.90
7498;DHT22;3790;48.806;9.140;2023-03-19T19:46:17;9.10;99.90
7498;DHT22;3790;48.806;9.140;2023-03-19T19:51:23;9.00;99.90
7498;DHT22;3790;48.806;9.140;2023-03-19T19:56:24;8.80;99.90
7498;DHT22;3790;48.806;9.140;2023-03-19T20:01:26;8.70;99.90
7498;DHT22;3790;48.806;9.140;2023-03-19T20:06:26;8.70;99.90
7498;DHT22;3790;48.806;9.140;2023-03-19T20:11:30;8.70;99.90
7498;DHT22;3790;48.806;9.140;2023-03-19T20:16:30;8.90;99.90
7498;DHT22;3790;48.806;9.140;2023-03-19T20:21:31;9.00;99.90
7498;DHT22;3790;48.806;9.140;2023-03-19T20:26:32;9.20;99.90
7498;DHT22;3790;48.806;9.140;2023-03-19T20:31:33;9.40;99.90
7498;DHT22;3790;48.806;9.140;2023-03-19T20:36:36;9.50;99.90
7498;DHT22;3790;48.806;9.140;2023-03-19T20:41:36;9.50;99.90
7498;DHT22;3790;48.806;9.140;2023-03-19T20:46:37;9.50;99.90
7498;DHT22;3790;48.806;9.140;2023-03-19T20:51:38;9.50;99.90
7498;DHT22;3790;48.806;9.140;2023-03-19T20:56:39;9.60;99.90
7498;DHT22;3790;48.806;9.140;2023-03-19T21:01:41;9.50;99.90
7498;DHT22;3790;48.806;9.140;2023-03-19T21:06:41;9.50;99.90
7498;DHT22;3790;48.806;9.140;2023-03-19T21:11:43;9.50;99.90
7498;DHT22;3790;48.806;9.140;2023-03-19T21:16:44;9.50;99.90
7498;DHT22;3790;48.806;9.140;2023-03-19T21:21:44;9.20;99.90
7498;DHT22;3790;48.806;9.140;2023-03-19T21:26:45;9.00;99.90
7498;DHT22;3790;48.806;9.140;2023-03-19T21:31:46;8.80;99.90
7498;DHT22;3790;48.806;9.140;2023-03-19T21:36:47;8.70;99.90
7498;DHT22;3790;48.806;9.140;2023-03-19T21:41:47;8.70;99.90
7498;DHT22;3790;48.806;9.140;2023-03-19T21:46:48;8.60;99.90
7498;DHT22;3790;48.806;9.140;2023-03-19T21:51:48;8.70;99.90
7498;DHT22;3790;48.806;9.140;2023-03-19T21:56:49;8.70;99.90
7498;DHT22;3790;48.806;9.140;2023-03-19T22:01:50;8.60;99.90
7498;DHT22;3790;48.806;9.140;2023-03-19T22:06:50;8.70;99.90
7498;DHT22;3790;48.806;9.140;2023-03-19T22:11:51;8.80;99.90
7498;DHT22;3790;48.806;9.140;2023-03-19T22:16:53;8.80;99.90
7498;DHT22;3790;48.806;9.140;2023-03-19T22:21:54;8.80;99.90
7498;DHT22;3790;48.806;9.140;2023-03-19T22:26:56;9.00;99.90
7498;DHT22;3790;48.806;9.140;2023-03-19T22:31:57;9.10;99.90
7498;DHT22;3790;48.806;9.140;2023-03-19T22:36:58;9.30;99.90
7498;DHT22;3790;48.806;9.140;2023-03-19T22:41:59;9.30;99.90
7498;DHT22;3790;48.806;9.140;2023-03-19T22:47:00;9.30;99.90
7498;DHT22;3790;48.806;9.140;2023-03-19T22:52:01;9.20;99.90
7498;DHT22;3790;48.806;9.140;2023-03-19T22:57:02;9.00;99.90
7498;DHT22;3790;48.806;9.140;2023-03-19T23:02:02;8.80;99.90
7498;DHT22;3790;48.806;9.140;2023-03-19T23:07:03;8.70;99.90
7498;DHT22;3790;48.806;9.140;2023-03-19T23:12:04;8.60;99.90
7498;DHT22;3790;48.806;9.140;2023-03-19T23:17:13;8.60;99.90
7498;DHT22;3790;48.806;9.140;2023-03-19T23:22:16;8.60;99.90
7498;DHT22;3790;48.806;9.140;2023-03-19T23:27:26;8.50;99.90
7498;DHT22;3790;48.806;9.140;2023-03-19T23:32:26;8.50;99.90
7498;DHT22;3790;48.806;9.140;2023-03-19T23:37:28;8.60;99.90
7498;DHT22;3790;48.806;9.140;2023-03-19T23:42:29;8.60;99.90
7498;DHT22;3790;48.806;9.140;2023-03-19T23:47:30;8.60;99.90
7498;DHT22;3790;48.806;9.140;2023-03-19T23:52:31;8.70;99.90
7498;DHT22;3790;48.806;9.140;2023-03-19T23:57:32;8.70;99.90
